sensor_id;sensor_type;location;lat;lon;timestamp;temperature;humidity
52765;DHT22;38650;44.536;18.664;2023-01-08T00:01:54;5.90;99.90
52765;DHT22;38650;44.536;18.664;2023-01-08T00:04:19;5.80;99.90
52765;DHT22;38650;44.536;18.664;2023-01-08T00:06:45;5.80;99.90
52765;DHT22;38650;44.536;18.664;2023-01-08T00:09:11;5.80;99.90
52765;DHT22;38650;44.536;18.664;2023-01-08T00:11:37;5.70;99.90
52765;DHT22;38650;44.536;18.664;2023-01-08T00:14:03;5.70;99.90
52765;DHT22;38650;44.536;18.664;2023-01-08T00:16:29;5.70;99.90
52765;DHT22;38650;44.536;18.664;2023-01-08T00:18:55;5.80;99.90
52765;DHT22;38650;44.536;18.664;2023-01-08T00:21:20;5.80;99.90
52765;DHT22;38650;44.536;18.664;2023-01-08T00:23:46;5.70;99.90
52765;DHT22;38650;44.536;18.664;2023-01-08T00:26:12;5.70;99.90
52765;DHT22;38650;44.536;18.664;2023-01-08T00:28:39;5.70;99.90
52765;DHT22;38650;44.536;18.664;2023-01-08T00:31:10;5.60;99.90
52765;DHT22;38650;44.536;18.664;2023-01-08T00:33:38;5.50;99.90
52765;DHT22;38650;44.536;18.664;2023-01-08T00:36:08;5.50;99.90
52765;DHT22;38650;44.536;18.664;2023-01-08T00:38:34;5.50;99.90
52765;DHT22;38650;44.536;18.664;2023-01-08T00:41:00;5.50;99.90
52765;DHT22;38650;44.536;18.664;2023-01-08T00:43:25;5.40;99.90
52765;DHT22;38650;44.536;18.664;2023-01-08T00:45:51;5.50;99.90
52765;DHT22;38650;44.536;18.664;2023-01-08T00:48:18;5.40;99.90
52765;DHT22;38650;44.536;18.664;2023-01-08T00:50:44;5.20;99.90
52765;DHT22;38650;44.536;18.664;2023-01-08T00:53:10;5.20;99.90
52765;DHT22;38650;44.536;18.664;2023-01-08T00:55:36;5.10;99.90
52765;DHT22;38650;44.536;18.664;2023-01-08T00:58:02;5.10;99.90
52765;DHT22;38650;44.536;18.664;2023-01-08T01:00:27;5.10;99.90
52765;DHT22;38650;44.536;18.664;2023-01-08T01:02:53;5.10;99.90
52765;DHT22;38650;44.536;18.664;2023-01-08T01:05:19;5.20;99.90
52765;DHT22;38650;44.536;18.664;2023-01-08T01:07:45;5.10;99.90
52765;DHT22;38650;44.536;18.664;2023-01-08T01:10:16;5.10;99.90
52765;DHT22;38650;44.536;18.664;2023-01-08T01:12:42;5.20;99.90
52765;DHT22;38650;44.536;18.664;2023-01-08T01:15:11;5.20;99.90
52765;DHT22;38650;44.536;18.664;2023-01-08T01:17:38;5.20;99.90
52765;DHT22;38650;44.536;18.664;2023-01-08T01:20:06;5.10;99.90
52765;DHT22;38650;44.536;18.664;2023-01-08T01:22:32;5.10;99.90
52765;DHT22;38650;44.536;18.664;2023-01-08T01:24:58;5.10;99.90
52765;DHT22;38650;44.536;18.664;2023-01-08T01:27:25;5.20;99.90
52765;DHT22;38650;44.536;18.664;2023-01-08T01:29:51;5.20;99.90
52765;DHT22;38650;44.536;18.664;2023-01-08T01:32:17;5.20;99.90
52765;DHT22;38650;44.536;18.664;2023-01-08T01:34:43;5.10;99.90
52765;DHT22;38650;44.536;18.664;2023-01-08T01:37:11;5.10;99.90
52765;DHT22;38650;44.536;18.664;2023-01-08T01:39:37;5.10;99.90
52765;DHT22;38650;44.536;18.664;2023-01-08T01:42:03;5.10;99.90
52765;DHT22;38650;44.536;18.664;2023-01-08T01:50:21;4.90;99.90
52765;DHT22;38650;44.536;18.664;2023-01-08T01:53:11;4.90;99.90
52765;DHT22;38650;44.536;18.664;2023-01-08T01:55:38;5.00;99.90
52765;DHT22;38650;44.536;18.664;2023-01-08T01:58:31;5.00;99.90
52765;DHT22;38650;44.536;18.664;2023-01-08T02:01:00;5.00;99.90
52765;DHT22;38650;44.536;18.664;2023-01-08T02:03:32;5.00;99.90
52765;DHT22;38650;44.536;18.664;2023-01-08T02:12:51;5.00;99.90
52765;DHT22;38650;44.536;18.664;2023-01-08T02:17:56;4.90;99.90
52765;DHT22;38650;44.536;18.664;2023-01-08T02:28:29;4.70;99.90
52765;DHT22;38650;44.536;18.664;2023-01-08T02:30:57;4.70;99.90
52765;DHT22;38650;44.536;18.664;2023-01-08T02:33:26;4.60;99.90
52765;DHT22;38650;44.536;18.664;2023-01-08T02:36:12;4.60;99.90
52765;DHT22;38650;44.536;18.664;2023-01-08T02:41:23;4.70;99.90
52765;DHT22;38650;44.536;18.664;2023-01-08T02:43:53;4.60;99.90
52765;DHT22;38650;44.536;18.664;2023-01-08T02:46:24;4.50;99.90
52765;DHT22;38650;44.536;18.664;2023-01-08T02:48:55;4.50;99.90
52765;DHT22;38650;44.536;18.664;2023-01-08T02:51:42;4.50;99.90
52765;DHT22;38650;44.536;18.664;2023-01-08T02:54:13;4.50;99.90
52765;DHT22;38650;44.536;18.664;2023-01-08T02:56:43;4.50;99.90
52765;DHT22;38650;44.536;18.664;2023-01-08T02:59:12;4.50;99.90
52765;DHT22;38650;44.536;18.664;2023-01-08T03:01:38;4.40;99.90
52765;DHT22;38650;44.536;18.664;2023-01-08T03:04:08;4.40;99.90
52765;DHT22;38650;44.536;18.664;2023-01-08T03:06:36;4.40;99.90
52765;DHT22;38650;44.536;18.664;2023-01-08T03:09:03;4.50;99.90
52765;DHT22;38650;44.536;18.664;2023-01-08T03:11:40;4.50;99.90
52765;DHT22;38650;44.536;18.664;2023-01-08T03:17:00;4.50;99.90
52765;DHT22;38650;44.536;18.664;2023-01-08T03:19:34;4.50;99.90
52765;DHT22;38650;44.536;18.664;2023-01-08T03:22:02;4.50;99.90
52765;DHT22;38650;44.536;18.664;2023-01-08T03:24:32;4.50;99.90
52765;DHT22;38650;44.536;18.664;2023-01-08T03:27:02;4.50;99.90
52765;DHT22;38650;44.536;18.664;2023-01-08T03:29:29;4.50;99.90
52765;DHT22;38650;44.536;18.664;2023-01-08T03:31:59;4.60;99.90
52765;DHT22;38650;44.536;18.664;2023-01-08T03:34:27;4.50;99.90
52765;DHT22;38650;44.536;18.664;2023-01-08T03:36:58;4.50;99.90
52765;DHT22;38650;44.536;18.664;2023-01-08T03:41:55;4.50;99.90
52765;DHT22;38650;44.536;18.664;2023-01-08T03:44:22;4.50;99.90
52765;DHT22;38650;44.536;18.664;2023-01-08T03:46:51;4.50;99.90
52765;DHT22;38650;44.536;18.664;2023-01-08T03:49:19;4.50;99.90
52765;DHT22;38650;44.536;18.664;2023-01-08T03:51:46;4.40;99.90
52765;DHT22;38650;44.536;18.664;2023-01-08T03:54:18;4.40;99.90
52765;DHT22;38650;44.536;18.664;2023-01-08T03:56:44;4.40;99.90
52765;DHT22;38650;44.536;18.664;2023-01-08T03:59:14;4.40;99.90
52765;DHT22;38650;44.536;18.664;2023-01-08T04:01:40;4.30;99.90
52765;DHT22;38650;44.536;18.664;2023-01-08T04:04:07;4.30;99.90
52765;DHT22;38650;44.536;18.664;2023-01-08T04:06:33;4.30;99.90
52765;DHT22;38650;44.536;18.664;2023-01-08T04:08:59;4.30;99.90
52765;DHT22;38650;44.536;18.664;2023-01-08T04:11:24;4.30;99.90
52765;DHT22;38650;44.536;18.664;2023-01-08T04:13:50;4.30;99.90
52765;DHT22;38650;44.536;18.664;2023-01-08T04:16:16;4.30;99.90
52765;DHT22;38650;44.536;18.664;2023-01-08T04:18:41;4.30;99.90
52765;DHT22;38650;44.536;18.664;2023-01-08T04:21:07;4.30;99.90
52765;DHT22;38650;44.536;18.664;2023-01-08T04:23:33;4.20;99.90
52765;DHT22;38650;44.536;18.664;2023-01-08T04:25:58;4.00;99.90
52765;DHT22;38650;44.536;18.664;2023-01-08T04:28:24;4.00;99.90
52765;DHT22;38650;44.536;18.664;2023-01-08T04:30:50;4.00;99.90
52765;DHT22;38650;44.536;18.664;2023-01-08T04:33:16;4.10;99.90
52765;DHT22;38650;44.536;18.664;2023-01-08T04:35:42;4.10;99.90
52765;DHT22;38650;44.536;18.664;2023-01-08T04:38:08;4.10;99.90
52765;DHT22;38650;44.536;18.664;2023-01-08T04:40:33;4.10;99.90
52765;DHT22;38650;44.536;18.664;2023-01-08T04:42:59;4.10;99.90
52765;DHT22;38650;44.536;18.664;2023-01-08T04:45:25;4.10;99.90
52765;DHT22;38650;44.536;18.664;2023-01-08T04:47:58;4.00;99.90
52765;DHT22;38650;44.536;18.664;2023-01-08T04:50:24;4.00;99.90
52765;DHT22;38650;44.536;18.664;2023-01-08T04:52:50;4.00;99.90
52765;DHT22;38650;44.536;18.664;2023-01-08T04:55:16;4.10;99.90
52765;DHT22;38650;44.536;18.664;2023-01-08T04:57:42;4.10;99.90
52765;DHT22;38650;44.536;18.664;2023-01-08T05:00:08;4.00;99.90
52765;DHT22;38650;44.536;18.664;2023-01-08T05:02:34;4.00;99.90
52765;DHT22;38650;44.536;18.664;2023-01-08T05:05:00;4.00;99.90
52765;DHT22;38650;44.536;18.664;2023-01-08T05:07:25;4.00;99.90
52765;DHT22;38650;44.536;18.664;2023-01-08T05:09:51;4.00;99.90
52765;DHT22;38650;44.536;18.664;2023-01-08T05:12:17;4.00;99.90
52765;DHT22;38650;44.536;18.664;2023-01-08T05:14:43;4.00;99.90
52765;DHT22;38650;44.536;18.664;2023-01-08T05:17:09;4.00;99.90
52765;DHT22;38650;44.536;18.664;2023-01-08T05:19:34;4.00;99.90
52765;DHT22;38650;44.536;18.664;2023-01-08T05:22:00;3.90;99.90
52765;DHT22;38650;44.536;18.664;2023-01-08T05:24:26;3.80;99.90
52765;DHT22;38650;44.536;18.664;2023-01-08T05:26:51;3.90;99.90
52765;DHT22;38650;44.536;18.664;2023-01-08T05:29:17;3.90;99.90
52765;DHT22;38650;44.536;18.664;2023-01-08T05:31:43;3.90;99.90
52765;DHT22;38650;44.536;18.664;2023-01-08T05:34:08;3.90;99.90
52765;DHT22;38650;44.536;18.664;2023-01-08T05:36:34;3.90;99.90
52765;DHT22;38650;44.536;18.664;2023-01-08T05:38:59;3.90;99.90
52765;DHT22;38650;44.536;18.664;2023-01-08T05:41:25;3.80;99.90
52765;DHT22;38650;44.536;18.664;2023-01-08T05:43:51;3.80;99.90
52765;DHT22;38650;44.536;18.664;2023-01-08T05:46:16;3.90;99.90
52765;DHT22;38650;44.536;18.664;2023-01-08T05:48:42;3.80;99.90
52765;DHT22;38650;44.536;18.664;2023-01-08T05:51:08;3.80;99.90
52765;DHT22;38650;44.536;18.664;2023-01-08T05:53:34;3.90;99.90
52765;DHT22;38650;44.536;18.664;2023-01-08T05:56:02;3.90;99.90
52765;DHT22;38650;44.536;18.664;2023-01-08T05:58:28;3.80;99.90
52765;DHT22;38650;44.536;18.664;2023-01-08T06:01:01;3.80;99.90
52765;DHT22;38650;44.536;18.664;2023-01-08T06:03:27;3.80;99.90
52765;DHT22;38650;44.536;18.664;2023-01-08T06:05:58;3.80;99.90
52765;DHT22;38650;44.536;18.664;2023-01-08T06:08:24;3.70;99.90
52765;DHT22;38650;44.536;18.664;2023-01-08T06:10:49;3.80;99.90
52765;DHT22;38650;44.536;18.664;2023-01-08T06:13:15;3.70;99.90
52765;DHT22;38650;44.536;18.664;2023-01-08T06:15:40;3.60;99.90
52765;DHT22;38650;44.536;18.664;2023-01-08T06:18:06;3.60;99.90
52765;DHT22;38650;44.536;18.664;2023-01-08T06:20:32;3.50;99.90
52765;DHT22;38650;44.536;18.664;2023-01-08T06:22:58;3.60;99.90
52765;DHT22;38650;44.536;18.664;2023-01-08T06:25:23;3.60;99.90
52765;DHT22;38650;44.536;18.664;2023-01-08T06:27:50;3.60;99.90
52765;DHT22;38650;44.536;18.664;2023-01-08T06:30:16;3.60;99.90
52765;DHT22;38650;44.536;18.664;2023-01-08T06:32:42;3.60;99.90
52765;DHT22;38650;44.536;18.664;2023-01-08T06:35:08;3.60;99.90
52765;DHT22;38650;44.536;18.664;2023-01-08T06:37:34;3.60;99.90
52765;DHT22;38650;44.536;18.664;2023-01-08T06:40:00;3.60;99.90
52765;DHT22;38650;44.536;18.664;2023-01-08T06:42:25;3.70;99.90
52765;DHT22;38650;44.536;18.664;2023-01-08T06:44:51;3.80;99.90
52765;DHT22;38650;44.536;18.664;2023-01-08T06:47:17;3.80;99.90
52765;DHT22;38650;44.536;18.664;2023-01-08T06:49:42;3.90;99.90
52765;DHT22;38650;44.536;18.664;2023-01-08T06:52:09;3.90;99.90
52765;DHT22;38650;44.536;18.664;2023-01-08T06:54:34;4.00;99.90
52765;DHT22;38650;44.536;18.664;2023-01-08T06:57:00;4.00;99.90
52765;DHT22;38650;44.536;18.664;2023-01-08T06:59:26;4.10;99.90
52765;DHT22;38650;44.536;18.664;2023-01-08T07:01:51;4.10;99.90
52765;DHT22;38650;44.536;18.664;2023-01-08T07:04:18;4.10;99.90
52765;DHT22;38650;44.536;18.664;2023-01-08T07:06:44;4.10;99.90
52765;DHT22;38650;44.536;18.664;2023-01-08T07:09:12;4.10;99.90
52765;DHT22;38650;44.536;18.664;2023-01-08T07:11:39;4.20;99.90
52765;DHT22;38650;44.536;18.664;2023-01-08T07:14:05;4.20;99.90
52765;DHT22;38650;44.536;18.664;2023-01-08T07:16:31;4.20;99.90
52765;DHT22;38650;44.536;18.664;2023-01-08T07:18:58;4.10;99.90
52765;DHT22;38650;44.536;18.664;2023-01-08T07:21:24;4.10;99.90
52765;DHT22;38650;44.536;18.664;2023-01-08T07:23:49;4.10;99.90
52765;DHT22;38650;44.536;18.664;2023-01-08T07:26:16;4.10;99.90
52765;DHT22;38650;44.536;18.664;2023-01-08T07:28:42;4.10;99.90
52765;DHT22;38650;44.536;18.664;2023-01-08T07:31:08;4.20;99.90
52765;DHT22;38650;44.536;18.664;2023-01-08T07:33:34;4.20;99.90
52765;DHT22;38650;44.536;18.664;2023-01-08T07:36:00;4.20;99.90
52765;DHT22;38650;44.536;18.664;2023-01-08T07:38:25;4.20;99.90
52765;DHT22;38650;44.536;18.664;2023-01-08T07:40:51;4.30;99.90
52765;DHT22;38650;44.536;18.664;2023-01-08T07:43:17;4.30;99.90
52765;DHT22;38650;44.536;18.664;2023-01-08T07:45:43;4.30;99.90
52765;DHT22;38650;44.536;18.664;2023-01-08T07:48:09;4.40;99.90
52765;DHT22;38650;44.536;18.664;2023-01-08T07:50:42;4.70;99.90
52765;DHT22;38650;44.536;18.664;2023-01-08T07:53:09;5.00;99.90
52765;DHT22;38650;44.536;18.664;2023-01-08T07:55:35;5.30;99.90
52765;DHT22;38650;44.536;18.664;2023-01-08T07:58:06;5.70;99.90
52765;DHT22;38650;44.536;18.664;2023-01-08T08:00:32;6.50;99.90
52765;DHT22;38650;44.536;18.664;2023-01-08T08:03:02;7.80;99.90
52765;DHT22;38650;44.536;18.664;2023-01-08T08:05:28;8.90;99.90
52765;DHT22;38650;44.536;18.664;2023-01-08T08:07:54;9.90;94.30
52765;DHT22;38650;44.536;18.664;2023-01-08T08:10:19;9.80;92.00
52765;DHT22;38650;44.536;18.664;2023-01-08T08:12:45;10.50;90.30
52765;DHT22;38650;44.536;18.664;2023-01-08T08:15:11;11.20;89.20
52765;DHT22;38650;44.536;18.664;2023-01-08T08:17:36;11.80;80.40
52765;DHT22;38650;44.536;18.664;2023-01-08T08:20:02;11.30;81.20
52765;DHT22;38650;44.536;18.664;2023-01-08T08:22:28;11.50;82.20
52765;DHT22;38650;44.536;18.664;2023-01-08T08:24:54;12.20;84.10
52765;DHT22;38650;44.536;18.664;2023-01-08T08:27:20;13.00;75.20
52765;DHT22;38650;44.536;18.664;2023-01-08T08:29:47;12.70;74.60
52765;DHT22;38650;44.536;18.664;2023-01-08T08:32:12;11.90;77.40
52765;DHT22;38650;44.536;18.664;2023-01-08T08:34:38;11.50;80.30
52765;DHT22;38650;44.536;18.664;2023-01-08T08:37:04;11.00;83.30
52765;DHT22;38650;44.536;18.664;2023-01-08T08:39:29;10.10;89.20
52765;DHT22;38650;44.536;18.664;2023-01-08T08:41:55;9.60;94.10
52765;DHT22;38650;44.536;18.664;2023-01-08T08:44:21;9.70;97.20
52765;DHT22;38650;44.536;18.664;2023-01-08T08:46:46;9.70;96.90
52765;DHT22;38650;44.536;18.664;2023-01-08T08:49:12;9.60;97.60
52765;DHT22;38650;44.536;18.664;2023-01-08T08:51:38;9.60;98.90
52765;DHT22;38650;44.536;18.664;2023-01-08T08:54:03;10.10;98.00
52765;DHT22;38650;44.536;18.664;2023-01-08T08:56:29;10.00;97.00
52765;DHT22;38650;44.536;18.664;2023-01-08T08:58:55;10.10;98.40
52765;DHT22;38650;44.536;18.664;2023-01-08T09:01:22;10.00;98.80
52765;DHT22;38650;44.536;18.664;2023-01-08T09:03:48;10.30;99.90
52765;DHT22;38650;44.536;18.664;2023-01-08T09:06:14;11.10;98.60
52765;DHT22;38650;44.536;18.664;2023-01-08T09:08:40;11.80;94.40
52765;DHT22;38650;44.536;18.664;2023-01-08T09:11:05;11.50;93.60
52765;DHT22;38650;44.536;18.664;2023-01-08T09:13:31;11.10;96.10
52765;DHT22;38650;44.536;18.664;2023-01-08T09:15:58;11.10;97.30
52765;DHT22;38650;44.536;18.664;2023-01-08T09:18:24;11.40;98.70
52765;DHT22;38650;44.536;18.664;2023-01-08T09:20:49;11.60;96.90
52765;DHT22;38650;44.536;18.664;2023-01-08T09:23:15;11.50;97.30
52765;DHT22;38650;44.536;18.664;2023-01-08T09:25:41;11.70;97.30
52765;DHT22;38650;44.536;18.664;2023-01-08T09:28:09;12.00;96.50
52765;DHT22;38650;44.536;18.664;2023-01-08T09:30:37;12.40;94.90
52765;DHT22;38650;44.536;18.664;2023-01-08T09:33:03;12.40;94.20
52765;DHT22;38650;44.536;18.664;2023-01-08T09:35:30;12.70;94.20
52765;DHT22;38650;44.536;18.664;2023-01-08T09:37:56;13.20;94.80
52765;DHT22;38650;44.536;18.664;2023-01-08T09:40:31;13.70;93.40
52765;DHT22;38650;44.536;18.664;2023-01-08T09:43:00;14.00;90.40
52765;DHT22;38650;44.536;18.664;2023-01-08T09:45:31;14.00;89.20
52765;DHT22;38650;44.536;18.664;2023-01-08T09:48:01;14.20;91.30
52765;DHT22;38650;44.536;18.664;2023-01-08T09:50:28;14.60;89.10
52765;DHT22;38650;44.536;18.664;2023-01-08T09:52:56;15.00;84.30
52765;DHT22;38650;44.536;18.664;2023-01-08T09:55:22;15.30;80.50
52765;DHT22;38650;44.536;18.664;2023-01-08T09:57:48;15.70;77.20
52765;DHT22;38650;44.536;18.664;2023-01-08T10:00:16;15.90;76.40
52765;DHT22;38650;44.536;18.664;2023-01-08T10:02:44;16.10;71.40
52765;DHT22;38650;44.536;18.664;2023-01-08T10:05:14;16.20;70.50
52765;DHT22;38650;44.536;18.664;2023-01-08T10:07:40;16.40;68.20
52765;DHT22;38650;44.536;18.664;2023-01-08T10:10:19;16.50;67.00
52765;DHT22;38650;44.536;18.664;2023-01-08T10:12:47;16.80;65.50
52765;DHT22;38650;44.536;18.664;2023-01-08T10:15:16;16.80;65.40
52765;DHT22;38650;44.536;18.664;2023-01-08T10:17:50;16.90;66.40
52765;DHT22;38650;44.536;18.664;2023-01-08T10:20:22;17.10;64.60
52765;DHT22;38650;44.536;18.664;2023-01-08T10:22:49;17.20;62.00
52765;DHT22;38650;44.536;18.664;2023-01-08T10:25:18;17.20;62.40
52765;DHT22;38650;44.536;18.664;2023-01-08T10:28:00;17.20;62.90
52765;DHT22;38650;44.536;18.664;2023-01-08T10:30:33;17.40;61.80
52765;DHT22;38650;44.536;18.664;2023-01-08T10:33:24;17.60;60.90
52765;DHT22;38650;44.536;18.664;2023-01-08T10:35:57;17.70;59.90
52765;DHT22;38650;44.536;18.664;2023-01-08T10:38:31;17.70;61.50
52765;DHT22;38650;44.536;18.664;2023-01-08T10:41:00;17.80;60.00
52765;DHT22;38650;44.536;18.664;2023-01-08T10:43:33;18.00;58.70
52765;DHT22;38650;44.536;18.664;2023-01-08T10:46:06;18.20;58.10
52765;DHT22;38650;44.536;18.664;2023-01-08T10:48:38;18.40;58.60
52765;DHT22;38650;44.536;18.664;2023-01-08T10:51:26;18.50;58.00
52765;DHT22;38650;44.536;18.664;2023-01-08T10:53:54;18.70;57.00
52765;DHT22;38650;44.536;18.664;2023-01-08T10:56:23;18.80;56.30
52765;DHT22;38650;44.536;18.664;2023-01-08T10:58:50;18.80;57.30
52765;DHT22;38650;44.536;18.664;2023-01-08T11:01:17;18.90;56.80
52765;DHT22;38650;44.536;18.664;2023-01-08T11:03:49;19.00;57.20
52765;DHT22;38650;44.536;18.664;2023-01-08T11:06:23;19.00;56.90
52765;DHT22;38650;44.536;18.664;2023-01-08T11:08:52;19.10;56.90
52765;DHT22;38650;44.536;18.664;2023-01-08T11:11:18;19.30;57.00
52765;DHT22;38650;44.536;18.664;2023-01-08T11:13:57;19.40;57.10
52765;DHT22;38650;44.536;18.664;2023-01-08T11:16:37;19.50;55.90
52765;DHT22;38650;44.536;18.664;2023-01-08T11:19:12;19.70;55.30
52765;DHT22;38650;44.536;18.664;2023-01-08T11:21:39;19.80;54.20
52765;DHT22;38650;44.536;18.664;2023-01-08T11:24:31;19.90;56.10
52765;DHT22;38650;44.536;18.664;2023-01-08T11:27:24;20.10;57.20
52765;DHT22;38650;44.536;18.664;2023-01-08T11:30:39;20.20;54.70
52765;DHT22;38650;44.536;18.664;2023-01-08T11:32:48;20.50;55.40
52765;DHT22;38650;44.536;18.664;2023-01-08T11:35:29;20.70;55.50
52765;DHT22;38650;44.536;18.664;2023-01-08T11:37:58;20.70;53.40
52765;DHT22;38650;44.536;18.664;2023-01-08T12:11:31;20.80;45.70
52765;DHT22;38650;44.536;18.664;2023-01-08T12:14:18;20.80;46.60
52765;DHT22;38650;44.536;18.664;2023-01-08T12:17:06;20.90;45.00
52765;DHT22;38650;44.536;18.664;2023-01-08T12:22:34;21.20;45.20
52765;DHT22;38650;44.536;18.664;2023-01-08T12:28:14;21.10;47.20
52765;DHT22;38650;44.536;18.664;2023-01-08T12:35:48;21.00;45.80
52765;DHT22;38650;44.536;18.664;2023-01-08T12:38:35;21.20;47.10
52765;DHT22;38650;44.536;18.664;2023-01-08T12:41:08;21.50;45.40
52765;DHT22;38650;44.536;18.664;2023-01-08T12:43:57;21.70;46.10
52765;DHT22;38650;44.536;18.664;2023-01-08T12:46:27;21.40;48.50
52765;DHT22;38650;44.536;18.664;2023-01-08T12:48:55;21.00;48.20
52765;DHT22;38650;44.536;18.664;2023-01-08T12:51:36;20.20;49.60
52765;DHT22;38650;44.536;18.664;2023-01-08T13:02:30;18.00;54.40
52765;DHT22;38650;44.536;18.664;2023-01-08T13:04:56;17.70;54.70
52765;DHT22;38650;44.536;18.664;2023-01-08T13:07:26;17.60;56.10
52765;DHT22;38650;44.536;18.664;2023-01-08T13:09:56;17.40;56.00
52765;DHT22;38650;44.536;18.664;2023-01-08T13:12:34;17.20;56.70
52765;DHT22;38650;44.536;18.664;2023-01-08T13:15:01;17.20;56.50
52765;DHT22;38650;44.536;18.664;2023-01-08T13:17:27;17.10;58.20
52765;DHT22;38650;44.536;18.664;2023-01-08T13:19:57;17.00;57.50
52765;DHT22;38650;44.536;18.664;2023-01-08T13:22:30;16.90;58.60
52765;DHT22;38650;44.536;18.664;2023-01-08T13:25:31;16.90;57.90
52765;DHT22;38650;44.536;18.664;2023-01-08T13:27:58;17.10;58.80
52765;DHT22;38650;44.536;18.664;2023-01-08T13:30:36;16.90;57.40
52765;DHT22;38650;44.536;18.664;2023-01-08T13:35:51;16.70;58.60
52765;DHT22;38650;44.536;18.664;2023-01-08T13:38:19;16.40;58.90
52765;DHT22;38650;44.536;18.664;2023-01-08T13:45:40;15.90;60.00
52765;DHT22;38650;44.536;18.664;2023-01-08T13:48:46;15.80;59.90
52765;DHT22;38650;44.536;18.664;2023-01-08T13:54:05;15.70;60.90
52765;DHT22;38650;44.536;18.664;2023-01-08T13:56:43;15.90;61.20
52765;DHT22;38650;44.536;18.664;2023-01-08T13:59:33;16.30;64.50
52765;DHT22;38650;44.536;18.664;2023-01-08T14:02:01;16.30;63.00
52765;DHT22;38650;44.536;18.664;2023-01-08T14:04:26;16.40;62.00
52765;DHT22;38650;44.536;18.664;2023-01-08T14:06:52;16.40;61.80
52765;DHT22;38650;44.536;18.664;2023-01-08T14:09:29;16.70;61.60
52765;DHT22;38650;44.536;18.664;2023-01-08T14:11:54;16.80;60.00
52765;DHT22;38650;44.536;18.664;2023-01-08T14:14:22;16.70;61.70
52765;DHT22;38650;44.536;18.664;2023-01-08T14:16:50;16.70;60.30
52765;DHT22;38650;44.536;18.664;2023-01-08T14:19:21;16.60;61.70
52765;DHT22;38650;44.536;18.664;2023-01-08T14:21:55;16.40;60.70
52765;DHT22;38650;44.536;18.664;2023-01-08T14:24:23;16.40;62.20
52765;DHT22;38650;44.536;18.664;2023-01-08T14:26:55;16.50;60.70
52765;DHT22;38650;44.536;18.664;2023-01-08T14:29:23;16.60;57.90
52765;DHT22;38650;44.536;18.664;2023-01-08T14:31:51;16.60;61.70
52765;DHT22;38650;44.536;18.664;2023-01-08T14:34:21;16.50;62.50
52765;DHT22;38650;44.536;18.664;2023-01-08T14:36:52;16.20;63.90
52765;DHT22;38650;44.536;18.664;2023-01-08T14:41:49;15.80;64.60
52765;DHT22;38650;44.536;18.664;2023-01-08T14:44:34;15.60;64.70
52765;DHT22;38650;44.536;18.664;2023-01-08T14:47:00;15.40;64.30
52765;DHT22;38650;44.536;18.664;2023-01-08T14:49:32;15.30;63.70
52765;DHT22;38650;44.536;18.664;2023-01-08T14:52:00;15.20;62.30
52765;DHT22;38650;44.536;18.664;2023-01-08T14:54:33;15.00;63.90
52765;DHT22;38650;44.536;18.664;2023-01-08T14:57:00;15.00;63.90
52765;DHT22;38650;44.536;18.664;2023-01-08T14:59:32;14.90;63.90
52765;DHT22;38650;44.536;18.664;2023-01-08T15:02:00;14.90;64.60
52765;DHT22;38650;44.536;18.664;2023-01-08T15:04:28;14.90;64.00
52765;DHT22;38650;44.536;18.664;2023-01-08T15:07:24;14.70;64.00
52765;DHT22;38650;44.536;18.664;2023-01-08T15:09:58;14.70;64.50
52765;DHT22;38650;44.536;18.664;2023-01-08T15:12:29;14.80;63.30
52765;DHT22;38650;44.536;18.664;2023-01-08T15:15:10;14.80;62.00
52765;DHT22;38650;44.536;18.664;2023-01-08T15:17:39;14.80;64.40
52765;DHT22;38650;44.536;18.664;2023-01-08T15:20:05;14.90;63.90
52765;DHT22;38650;44.536;18.664;2023-01-08T15:22:31;14.90;62.10
52765;DHT22;38650;44.536;18.664;2023-01-08T15:25:02;14.90;64.00
52765;DHT22;38650;44.536;18.664;2023-01-08T15:27:29;14.80;64.50
52765;DHT22;38650;44.536;18.664;2023-01-08T15:30:02;14.80;65.80
52765;DHT22;38650;44.536;18.664;2023-01-08T15:32:32;14.60;66.60
52765;DHT22;38650;44.536;18.664;2023-01-08T15:35:03;14.50;66.80
52765;DHT22;38650;44.536;18.664;2023-01-08T15:37:37;14.40;67.50
52765;DHT22;38650;44.536;18.664;2023-01-08T15:40:03;14.10;67.70
52765;DHT22;38650;44.536;18.664;2023-01-08T15:42:32;13.90;68.40
52765;DHT22;38650;44.536;18.664;2023-01-08T15:45:21;13.70;71.30
52765;DHT22;38650;44.536;18.664;2023-01-08T15:47:47;13.70;71.10
52765;DHT22;38650;44.536;18.664;2023-01-08T15:50:13;13.60;72.20
52765;DHT22;38650;44.536;18.664;2023-01-08T15:52:40;13.50;72.20
52765;DHT22;38650;44.536;18.664;2023-01-08T15:55:14;13.40;72.70
52765;DHT22;38650;44.536;18.664;2023-01-08T15:57:40;13.30;74.00
52765;DHT22;38650;44.536;18.664;2023-01-08T16:00:07;13.10;74.80
52765;DHT22;38650;44.536;18.664;2023-01-08T16:02:43;13.00;76.60
52765;DHT22;38650;44.536;18.664;2023-01-08T16:05:09;12.80;77.10
52765;DHT22;38650;44.536;18.664;2023-01-08T16:07:36;12.50;79.90
52765;DHT22;38650;44.536;18.664;2023-01-08T16:10:02;12.30;81.50
52765;DHT22;38650;44.536;18.664;2023-01-08T16:12:27;12.10;84.80
52765;DHT22;38650;44.536;18.664;2023-01-08T16:14:53;12.30;85.30
52765;DHT22;38650;44.536;18.664;2023-01-08T16:17:19;12.40;85.20
52765;DHT22;38650;44.536;18.664;2023-01-08T16:19:44;12.30;85.70
52765;DHT22;38650;44.536;18.664;2023-01-08T16:22:10;12.30;86.40
52765;DHT22;38650;44.536;18.664;2023-01-08T16:24:36;12.30;85.60
52765;DHT22;38650;44.536;18.664;2023-01-08T16:27:01;12.20;86.80
52765;DHT22;38650;44.536;18.664;2023-01-08T16:29:27;12.10;87.20
52765;DHT22;38650;44.536;18.664;2023-01-08T16:31:53;12.20;87.10
52765;DHT22;38650;44.536;18.664;2023-01-08T16:34:20;12.00;87.80
52765;DHT22;38650;44.536;18.664;2023-01-08T16:36:47;12.00;87.70
52765;DHT22;38650;44.536;18.664;2023-01-08T16:39:13;12.20;88.00
52765;DHT22;38650;44.536;18.664;2023-01-08T16:41:38;12.30;86.50
52765;DHT22;38650;44.536;18.664;2023-01-08T16:44:04;12.20;89.30
52765;DHT22;38650;44.536;18.664;2023-01-08T16:46:30;12.00;90.40
52765;DHT22;38650;44.536;18.664;2023-01-08T16:48:57;11.90;91.50
52765;DHT22;38650;44.536;18.664;2023-01-08T16:51:23;11.90;91.20
52765;DHT22;38650;44.536;18.664;2023-01-08T16:53:50;11.90;91.10
52765;DHT22;38650;44.536;18.664;2023-01-08T16:56:16;11.90;91.50
52765;DHT22;38650;44.536;18.664;2023-01-08T16:58:41;11.90;91.90
52765;DHT22;38650;44.536;18.664;2023-01-08T17:01:09;11.90;92.10
52765;DHT22;38650;44.536;18.664;2023-01-08T17:03:35;11.80;92.50
52765;DHT22;38650;44.536;18.664;2023-01-08T17:06:09;11.80;92.80
52765;DHT22;38650;44.536;18.664;2023-01-08T17:08:35;11.60;94.00